JESUS IS THE REASON DFO RUN

Ada, OK

Race Results

5K RUN

Saturday, Apr 3, 2021

Results are: Unofficial

Participants 23
Finishers 22
Pace
Average Time 00:32:04
 
 
Place Name Gender Gender Place Age Age Place Gun Time Chip Time Pace Last Seen At Start Time
1 BO CHESSER (# 857) M 1 24 00:22:07 Finish 8:13 AM
2 BRANDON COLLINS (# 854) M 2 17 00:22:43 Finish 8:13 AM
3 CADENCE CARLOS (# 727) F 1 15 00:23:30 Finish 8:13 AM
4 DETLEF GALBREATH (# 735) M 3 55 00:24:05 Finish 8:13 AM
5 KENNY MOORE (# 758) M 4 48 00:24:25 Finish 8:13 AM
6 CURT CARLOS (# 732) M 5 13 00:24:57 Finish 8:13 AM
7 BLAISE MANUEL (# 741) M 6 13 00:25:00 Finish 8:13 AM
8 RECE NICKELL (# 858) M 7 15 00:25:42 Finish 8:13 AM
9 ZAC BRADY (# 855) M 8 37 00:25:51 Finish 8:13 AM
10 CAMERON BRADY (# 724) M 9 35 00:25:57 Finish 8:13 AM
11 DENVER PALMER (# 759) M 10 39 00:26:32 Finish 8:13 AM
12 TERRY SCOTT (# 771) M 11 74 00:28:28 Finish 8:13 AM
13 DONNIE HARRIS (# 853) M 12 62 00:29:52 Finish 8:13 AM
14 KELLYE GRIFFIN (# 736) F 2 42 00:31:16 Finish 8:13 AM
15 JONI MOORE (# 757) F 3 44 00:32:49 Finish 8:13 AM
16 SUZIE HIBBETT (# 739) F 4 62 00:36:32 Finish 8:13 AM
17 ANGELA STREATER (# 780) F 5 45 00:40:00 Finish 8:13 AM
18 LEAHNA WEST (# 788) F 6 51 00:40:00 Finish 8:13 AM
19 CASE WALKER (# 782) M 13 3 00:47:37 Finish 8:13 AM
20 MICHELLE ALEXANDER (# 718) F 7 51 00:47:47 Finish 8:13 AM
21 CUTTER WALKER (# 787) M 14 7 00:47:47 Finish 8:13 AM
22 MYRA RAGSDALE (# 761) F 8 65 00:52:27 Finish 8:13 AM
0 ROXIE DODD (# 733) F 0 65 8:13 AM
    Page:      




Trust Guard Security Scanned